createdAt,value
2023-02-11T00:02:11.945Z,14.02
2023-02-11T00:04:39.222Z,13.85
2023-02-11T00:07:06.772Z,15.27
2023-02-11T00:09:34.027Z,13.60
2023-02-11T00:12:01.576Z,13.95
2023-02-11T00:14:28.841Z,14.90
2023-02-11T00:16:56.600Z,15.75
2023-02-11T00:19:23.940Z,16.45
2023-02-11T00:21:51.074Z,15.90
2023-02-11T00:24:18.593Z,16.00
2023-02-11T00:26:45.802Z,17.13
2023-02-11T00:29:13.303Z,16.10
2023-02-11T00:31:41.183Z,15.73
2023-02-11T00:34:08.827Z,16.45
2023-02-11T00:36:36.081Z,17.38
2023-02-11T00:39:03.680Z,17.02
2023-02-11T00:41:31.255Z,18.13
2023-02-11T00:44:01.096Z,17.35
2023-02-11T00:46:28.664Z,16.48
2023-02-11T00:48:58.010Z,18.60
2023-02-11T00:51:26.453Z,19.35
2023-02-11T00:53:54.487Z,19.27
2023-02-11T00:56:22.118Z,18.40
2023-02-11T00:58:50.090Z,20.17
2023-02-11T01:01:18.078Z,19.35
2023-02-11T01:03:45.920Z,19.88
2023-02-11T01:06:13.318Z,20.17
2023-02-11T01:08:40.998Z,18.45
2023-02-11T01:11:14.712Z,18.52
2023-02-11T01:13:44.509Z,20.75
2023-02-11T01:16:12.193Z,18.90
2023-02-11T01:18:41.951Z,19.05
2023-02-11T01:21:10.862Z,20.73
2023-02-11T01:23:38.485Z,20.50
2023-02-11T01:26:05.850Z,19.98
2023-02-11T01:28:33.674Z,20.48
2023-02-11T01:31:02.340Z,19.15
2023-02-11T01:33:30.157Z,20.90
2023-02-11T01:36:01.153Z,21.23
2023-02-11T01:38:29.043Z,20.08
2023-02-11T01:41:02.223Z,21.23
2023-02-11T01:43:33.844Z,21.48
2023-02-11T01:46:04.160Z,19.75
2023-02-11T01:48:38.026Z,22.52
2023-02-11T01:51:11.267Z,22.20
2023-02-11T01:53:57.795Z,22.15
2023-02-11T01:56:46.009Z,22.77
2023-02-11T01:59:20.721Z,21.05
2023-02-11T02:01:53.783Z,22.10
2023-02-11T02:04:23.374Z,23.02
2023-02-11T02:06:55.506Z,22.30
2023-02-11T02:09:28.512Z,21.67
2023-02-11T02:11:55.958Z,22.83
2023-02-11T02:14:23.535Z,22.55
2023-02-11T02:16:53.380Z,23.85
2023-02-11T02:19:30.285Z,24.15
2023-02-11T02:22:36.844Z,24.13
2023-02-11T02:25:26.134Z,24.23
2023-02-11T02:28:16.710Z,24.90
2023-02-11T02:30:44.208Z,24.40
2023-02-11T02:33:26.385Z,22.90
2023-02-11T02:36:07.365Z,23.75
2023-02-11T02:38:44.084Z,24.05
2023-02-11T02:41:15.741Z,24.88
2023-02-11T02:43:46.169Z,25.63
2023-02-11T02:46:15.878Z,24.58
2023-02-11T02:48:44.622Z,23.65
2023-02-11T02:51:26.123Z,23.02
2023-02-11T02:54:05.375Z,18.93
2023-02-11T02:56:48.445Z,23.60
2023-02-11T02:59:36.583Z,23.25
2023-02-11T03:02:33.374Z,24.17
2023-02-11T03:05:23.585Z,21.45
2023-02-11T03:08:05.829Z,21.45
2023-02-11T03:10:38.494Z,20.17
2023-02-11T03:13:07.673Z,20.05
2023-02-11T03:15:41.760Z,20.90
2023-02-11T03:18:14.165Z,20.90
2023-02-11T03:20:45.425Z,21.02
2023-02-11T03:23:19.383Z,16.25
2023-02-11T03:26:00.314Z,20.10
2023-02-11T03:29:15.467Z,20.03
2023-02-11T03:31:42.851Z,19.48
2023-02-11T03:34:16.894Z,20.25
2023-02-11T03:36:54.686Z,18.83
2023-02-11T03:39:29.624Z,19.52
2023-02-11T03:41:59.897Z,18.95
2023-02-11T03:44:33.465Z,18.15
2023-02-11T03:47:02.639Z,17.25
2023-02-11T03:49:33.040Z,19.88
2023-02-11T03:52:03.175Z,18.75
2023-02-11T03:54:31.651Z,20.27
2023-02-11T03:57:02.399Z,18.98
2023-02-11T03:59:30.122Z,15.45
2023-02-11T04:01:59.589Z,17.45
2023-02-11T04:04:27.200Z,18.90
2023-02-11T04:06:54.485Z,18.73
2023-02-11T04:09:22.146Z,17.85
2023-02-11T04:11:49.384Z,18.02
2023-02-11T04:14:16.990Z,16.73
2023-02-11T04:16:44.415Z,18.15
2023-02-11T04:19:12.117Z,16.65
2023-02-11T04:21:39.400Z,16.63
2023-02-11T04:24:07.034Z,15.88
2023-02-11T04:26:34.282Z,15.75
2023-02-11T04:29:01.814Z,16.17
2023-02-11T04:31:29.184Z,16.27
2023-02-11T04:33:57.041Z,15.23
2023-02-11T04:36:24.276Z,15.73
2023-02-11T04:38:51.796Z,15.18
2023-02-11T04:41:19.064Z,14.75
2023-02-11T04:43:46.601Z,14.80
2023-02-11T04:46:13.980Z,14.52
2023-02-11T04:48:41.516Z,13.82
2023-02-11T04:51:09.471Z,13.05
2023-02-11T04:53:37.119Z,13.65
2023-02-11T04:56:04.946Z,13.15
2023-02-11T04:58:32.514Z,13.10
2023-02-11T05:01:15.650Z,13.00
2023-02-11T05:03:43.603Z,11.55
2023-02-11T05:06:11.636Z,11.82
2023-02-11T05:08:39.672Z,12.50
2023-02-11T05:11:08.353Z,11.63
2023-02-11T05:13:35.931Z,11.05
2023-02-11T05:16:03.251Z,12.10
2023-02-11T05:18:30.780Z,13.27
2023-02-11T05:20:58.069Z,12.55
2023-02-11T05:23:25.708Z,11.27
2023-02-11T05:25:53.039Z,12.43
2023-02-11T05:28:20.683Z,12.35
2023-02-11T05:30:47.957Z,12.15
2023-02-11T05:33:15.480Z,12.02
2023-02-11T05:35:42.762Z,12.25
2023-02-11T05:38:10.817Z,10.88
2023-02-11T05:40:38.167Z,12.00
2023-02-11T05:43:05.922Z,12.30
2023-02-11T05:45:33.587Z,10.93
2023-02-11T05:48:01.180Z,9.77
2023-02-11T05:50:28.524Z,10.02
2023-02-11T05:52:56.062Z,11.15
2023-02-11T05:55:23.620Z,10.88
2023-02-11T05:57:51.142Z,10.68
2023-02-11T06:00:18.549Z,9.80
2023-02-11T06:02:46.102Z,10.45
2023-02-11T06:05:13.482Z,10.45
2023-02-11T06:07:41.023Z,10.73
2023-02-11T06:10:09.414Z,10.85
2023-02-11T06:12:38.363Z,9.75
2023-02-11T06:15:06.541Z,8.80
2023-02-11T06:17:34.239Z,9.23
2023-02-11T06:20:02.941Z,9.25
2023-02-11T06:22:30.647Z,8.63
2023-02-11T06:25:02.073Z,9.45
2023-02-11T06:27:31.281Z,8.73
2023-02-11T06:29:58.629Z,9.00
2023-02-11T06:32:45.388Z,8.60
2023-02-11T06:35:14.847Z,9.07
2023-02-11T06:37:43.031Z,8.65
2023-02-11T06:40:11.749Z,9.15
2023-02-11T06:42:39.757Z,10.43
2023-02-11T06:45:13.235Z,9.43
2023-02-11T06:47:41.551Z,9.77
2023-02-11T06:50:13.223Z,9.55
2023-02-11T06:55:08.409Z,9.55
2023-02-11T06:57:35.952Z,9.10
2023-02-11T07:00:05.385Z,8.70
2023-02-11T07:02:33.272Z,9.23
2023-02-11T07:05:00.555Z,9.48
2023-02-11T07:07:28.436Z,9.52
2023-02-11T07:09:55.661Z,9.13
2023-02-11T07:12:23.224Z,10.60
2023-02-11T07:14:50.463Z,9.00
2023-02-11T07:17:18.000Z,8.73
2023-02-11T07:19:45.267Z,8.60
2023-02-11T07:22:12.989Z,9.15
2023-02-11T07:24:40.356Z,8.55
2023-02-11T07:27:07.989Z,8.70
2023-02-11T07:29:35.336Z,8.25
2023-02-11T07:32:02.977Z,8.05
2023-02-11T07:34:30.245Z,7.97
2023-02-11T07:36:57.840Z,7.88
2023-02-11T07:39:27.611Z,8.05
2023-02-11T07:41:55.376Z,7.25
2023-02-11T07:44:22.795Z,7.47
2023-02-11T07:46:50.479Z,7.53
2023-02-11T07:49:17.739Z,7.13
2023-02-11T07:51:45.980Z,6.68
2023-02-11T07:54:13.265Z,6.72
2023-02-11T07:56:40.794Z,7.10
2023-02-11T07:59:08.133Z,6.55
2023-02-11T08:01:35.670Z,6.53
2023-02-11T08:04:03.682Z,5.65
2023-02-11T08:06:33.637Z,5.53
2023-02-11T08:09:06.318Z,5.28
2023-02-11T08:11:33.872Z,4.97
2023-02-11T08:14:01.574Z,5.18
2023-02-11T08:16:34.798Z,4.95
2023-02-11T08:19:05.605Z,4.68
2023-02-11T08:21:33.284Z,4.43
2023-02-11T08:24:02.488Z,4.32
2023-02-11T08:26:32.920Z,4.07
2023-02-11T08:29:01.640Z,4.13
2023-02-11T08:31:38.107Z,3.15
2023-02-11T08:34:06.035Z,3.75
2023-02-11T08:36:36.185Z,2.63
2023-02-11T08:39:19.181Z,3.70
2023-02-11T08:41:49.778Z,3.10
2023-02-11T08:44:18.616Z,3.25
2023-02-11T08:46:46.771Z,3.05
2023-02-11T08:49:14.944Z,2.38
2023-02-11T08:51:43.540Z,2.75
2023-02-11T08:54:11.047Z,2.33
2023-02-11T08:56:39.027Z,2.10
2023-02-11T08:59:07.593Z,2.22
2023-02-11T09:01:35.504Z,2.17
2023-02-11T09:04:02.744Z,1.98
2023-02-11T09:06:30.757Z,2.20
2023-02-11T09:08:58.955Z,1.90
2023-02-11T09:11:30.249Z,2.53
2023-02-11T09:13:58.566Z,2.30
2023-02-11T09:16:29.112Z,2.42
2023-02-11T09:18:58.634Z,2.65
2023-02-11T09:21:26.957Z,2.35
2023-02-11T09:23:54.406Z,2.38
2023-02-11T09:26:24.952Z,2.50
2023-02-11T09:28:52.680Z,2.53
2023-02-11T09:31:22.924Z,2.35
2023-02-11T09:33:53.631Z,2.15
2023-02-11T09:36:26.879Z,2.03
2023-02-11T09:38:54.838Z,1.85
2023-02-11T09:41:31.548Z,1.95
2023-02-11T09:44:03.060Z,2.10
2023-02-11T09:46:40.035Z,1.83
2023-02-11T09:49:11.638Z,1.95
2023-02-11T09:51:48.368Z,1.80
2023-02-11T09:54:36.530Z,1.98
2023-02-11T09:57:06.319Z,2.17
2023-02-11T09:59:34.119Z,1.67
2023-02-11T10:02:23.807Z,2.88
2023-02-11T10:05:20.355Z,2.80
2023-02-11T10:08:01.460Z,2.58
2023-02-11T10:10:47.224Z,1.90
2023-02-11T10:13:32.706Z,2.20
2023-02-11T10:16:18.165Z,2.15
2023-02-11T10:19:08.735Z,1.77
2023-02-11T10:21:47.912Z,1.70
2023-02-11T10:24:17.023Z,1.67
2023-02-11T10:26:45.794Z,1.63
2023-02-11T10:29:40.347Z,1.77
2023-02-11T10:32:34.568Z,2.08
2023-02-11T10:35:10.278Z,2.72
2023-02-11T10:37:37.522Z,3.22
2023-02-11T10:40:07.495Z,2.83
2023-02-11T10:42:36.150Z,4.03
2023-02-11T10:45:07.418Z,4.03
2023-02-11T10:47:39.697Z,2.53
2023-02-11T10:50:33.522Z,4.07
2023-02-11T10:53:20.613Z,4.47
2023-02-11T10:55:56.929Z,4.30
2023-02-11T10:58:28.159Z,4.40
2023-02-11T11:00:58.712Z,3.92
2023-02-11T11:03:34.749Z,4.47
2023-02-11T11:06:05.456Z,4.00
2023-02-11T11:08:41.849Z,4.43
2023-02-11T11:11:15.772Z,4.03
2023-02-11T11:13:58.275Z,4.03
2023-02-11T11:16:29.692Z,4.55
2023-02-11T11:19:09.191Z,4.82
2023-02-11T11:21:45.133Z,4.97
2023-02-11T11:24:44.519Z,4.20
2023-02-11T11:27:32.818Z,4.72
2023-02-11T11:30:02.304Z,3.40
2023-02-11T11:32:32.841Z,3.75
2023-02-11T11:35:03.691Z,4.70
2023-02-11T11:37:35.035Z,3.97
2023-02-11T11:40:08.433Z,4.90
2023-02-11T11:42:39.112Z,3.85
2023-02-11T11:45:26.600Z,4.00
2023-02-11T11:48:18.547Z,3.45
2023-02-11T11:50:53.913Z,3.30
2023-02-11T11:53:35.014Z,3.20
2023-02-11T11:56:14.585Z,3.30
2023-02-11T11:58:42.585Z,2.75
2023-02-11T12:01:26.192Z,3.15
2023-02-11T12:04:37.146Z,3.15
2023-02-11T12:07:55.055Z,3.72
2023-02-11T12:10:39.828Z,2.95
2023-02-11T12:13:09.977Z,4.70
2023-02-11T12:15:55.630Z,3.80
2023-02-11T12:19:00.208Z,3.20
2023-02-11T12:21:37.712Z,3.60
2023-02-11T12:24:30.355Z,4.05
2023-02-11T12:27:24.065Z,3.70
2023-02-11T12:29:55.112Z,3.00
2023-02-11T12:32:37.871Z,2.50
2023-02-11T12:35:22.251Z,2.95
2023-02-11T12:38:18.852Z,2.85
2023-02-11T12:40:49.065Z,2.85
2023-02-11T12:43:19.444Z,3.50
2023-02-11T12:46:17.767Z,3.00
2023-02-11T12:49:18.144Z,3.33
2023-02-11T12:52:16.414Z,3.22
2023-02-11T12:55:16.478Z,3.65
2023-02-11T12:57:46.608Z,3.42
2023-02-11T13:00:24.964Z,4.32
2023-02-11T13:03:11.083Z,3.30
2023-02-11T13:05:55.540Z,3.53
2023-02-11T13:08:38.473Z,3.65
2023-02-11T13:11:16.160Z,2.88
2023-02-11T13:13:46.319Z,3.10
2023-02-11T13:16:19.410Z,3.38
2023-02-11T13:19:03.848Z,4.10
2023-02-11T13:22:03.955Z,3.42
2023-02-11T13:24:48.118Z,3.85
2023-02-11T13:27:36.987Z,4.13
2023-02-11T13:30:33.404Z,3.08
2023-02-11T13:33:01.117Z,4.53
2023-02-11T13:35:30.152Z,3.78
2023-02-11T13:38:00.338Z,3.65
2023-02-11T13:40:36.881Z,3.03
2023-02-11T13:43:07.218Z,3.42
2023-02-11T13:45:41.491Z,3.53
2023-02-11T13:48:20.044Z,3.53
2023-02-11T13:50:53.981Z,3.85
2023-02-11T13:53:22.498Z,3.72
2023-02-11T13:56:06.260Z,2.60
2023-02-11T13:58:39.878Z,2.92
2023-02-11T14:01:07.912Z,3.72
2023-02-11T14:03:57.116Z,4.15
2023-02-11T14:06:47.326Z,3.42
2023-02-11T14:09:14.822Z,3.67
2023-02-11T14:11:43.937Z,4.10
2023-02-11T14:14:17.805Z,3.78
2023-02-11T14:17:11.194Z,2.92
2023-02-11T14:19:44.332Z,3.45
2023-02-11T14:22:18.971Z,4.03
2023-02-11T14:25:01.308Z,3.58
2023-02-11T14:27:31.297Z,4.05
2023-02-11T14:30:35.073Z,3.97
2023-02-11T14:33:22.875Z,3.40
2023-02-11T14:36:05.816Z,4.82
2023-02-11T14:38:36.098Z,3.45
2023-02-11T14:41:10.721Z,2.80
2023-02-11T14:43:43.113Z,3.33
2023-02-11T14:46:10.982Z,3.80
2023-02-11T14:48:43.303Z,4.07
2023-02-11T14:51:18.643Z,4.45
2023-02-11T14:53:52.300Z,3.08
2023-02-11T14:56:21.806Z,3.70
2023-02-11T14:58:51.910Z,2.60
2023-02-11T15:01:35.238Z,4.53
2023-02-11T15:04:05.432Z,3.05
2023-02-11T15:06:37.459Z,3.17
2023-02-11T15:09:17.901Z,3.38
2023-02-11T15:11:50.547Z,3.20
2023-02-11T15:14:28.183Z,2.45
2023-02-11T15:17:08.187Z,1.95
2023-02-11T15:19:41.699Z,2.40
2023-02-11T15:22:22.272Z,2.78
2023-02-11T15:25:02.339Z,2.88
2023-02-11T15:27:40.045Z,2.55
2023-02-11T15:30:22.449Z,2.70
2023-02-11T15:33:00.169Z,2.30
2023-02-11T15:35:35.243Z,4.80
2023-02-11T15:38:04.490Z,3.70
2023-02-11T15:40:37.446Z,2.97
2023-02-11T15:43:10.357Z,2.75
2023-02-11T15:45:44.569Z,6.72
2023-02-11T15:48:23.400Z,5.53
2023-02-11T15:50:54.857Z,2.53
2023-02-11T15:56:01.825Z,2.15
2023-02-11T15:58:29.615Z,2.38
2023-02-11T16:00:59.977Z,2.28
2023-02-11T16:03:32.752Z,1.77
2023-02-11T16:06:40.514Z,2.20
2023-02-11T16:09:13.823Z,1.90
2023-02-11T16:11:47.322Z,1.90
2023-02-11T16:14:30.154Z,1.88
2023-02-11T16:17:23.254Z,1.83
2023-02-11T16:19:53.161Z,1.80
2023-02-11T16:22:27.668Z,2.03
2023-02-11T16:25:00.286Z,2.17
2023-02-11T16:27:37.608Z,2.28
2023-02-11T16:30:06.049Z,2.20
2023-02-11T16:32:33.600Z,2.10
2023-02-11T16:35:01.871Z,3.00
2023-02-11T16:37:29.141Z,1.83
2023-02-11T16:39:58.291Z,1.75
2023-02-11T16:42:25.902Z,1.10
2023-02-11T16:44:53.485Z,1.40
2023-02-11T16:47:25.840Z,1.90
2023-02-11T16:49:54.248Z,1.83
2023-02-11T16:52:22.094Z,1.17
2023-02-11T16:54:49.852Z,1.20
2023-02-11T16:57:20.004Z,1.20
2023-02-11T16:59:47.795Z,0.77
2023-02-11T17:02:33.689Z,0.90
2023-02-11T17:05:03.598Z,0.70
2023-02-11T17:07:31.195Z,0.75
2023-02-11T17:09:59.017Z,1.10
2023-02-11T17:12:26.653Z,0.68
2023-02-11T17:14:54.497Z,0.63
2023-02-11T17:17:23.858Z,0.80
2023-02-11T17:19:51.595Z,0.70
2023-02-11T17:22:19.053Z,0.90
2023-02-11T17:24:46.663Z,0.98
2023-02-11T17:27:14.066Z,0.40
2023-02-11T17:29:41.779Z,0.75
2023-02-11T17:32:09.451Z,1.50
2023-02-11T17:34:37.057Z,0.40
2023-02-11T17:37:09.143Z,0.45
2023-02-11T17:39:38.114Z,0.75
2023-02-11T17:42:06.266Z,0.93
2023-02-11T17:44:34.188Z,1.00
2023-02-11T17:47:01.459Z,0.65
2023-02-11T17:49:28.994Z,0.73
2023-02-11T17:51:56.311Z,0.63
2023-02-11T17:54:24.849Z,0.63
2023-02-11T17:56:55.100Z,0.60
2023-02-11T17:59:25.994Z,0.80
2023-02-11T18:01:53.307Z,0.45
2023-02-11T18:04:21.071Z,0.60
2023-02-11T18:06:48.454Z,0.40
2023-02-11T18:09:16.043Z,0.50
2023-02-11T18:11:43.308Z,0.57
2023-02-11T18:14:11.252Z,0.52
2023-02-11T18:16:39.845Z,0.30
2023-02-11T18:19:07.805Z,0.55
2023-02-11T18:21:35.260Z,0.32
2023-02-11T18:24:06.673Z,0.40
2023-02-11T18:26:34.913Z,0.40
2023-02-11T18:29:03.979Z,0.65
2023-02-11T18:31:31.635Z,0.85
2023-02-11T18:33:59.340Z,0.55
2023-02-11T18:36:26.544Z,0.63
2023-02-11T18:38:54.405Z,0.85
2023-02-11T18:41:21.887Z,0.35
2023-02-11T18:43:49.645Z,0.28
2023-02-11T18:46:17.205Z,0.20
2023-02-11T18:48:45.195Z,0.22
2023-02-11T18:51:15.985Z,0.30
2023-02-11T18:53:43.635Z,0.27
2023-02-11T18:56:16.752Z,0.20
2023-02-11T18:58:44.589Z,0.20
2023-02-11T19:01:17.420Z,0.30
2023-02-11T19:03:45.716Z,0.40
2023-02-11T19:06:19.814Z,0.30
2023-02-11T19:08:47.492Z,0.38
2023-02-11T19:11:17.357Z,0.35
2023-02-11T19:13:45.092Z,0.30
2023-02-11T19:16:14.032Z,0.50
2023-02-11T19:18:41.634Z,0.57
2023-02-11T19:21:10.855Z,0.20
2023-02-11T19:23:38.639Z,0.30
2023-02-11T19:26:06.575Z,0.20
2023-02-11T19:28:37.127Z,0.30
2023-02-11T19:31:09.296Z,0.20
2023-02-11T19:33:37.093Z,0.38
2023-02-11T19:36:09.641Z,0.30
2023-02-11T19:38:38.621Z,1.05
2023-02-11T19:41:05.938Z,0.88
2023-02-11T19:43:33.483Z,0.65
2023-02-11T19:46:04.523Z,1.30
2023-02-11T19:48:32.237Z,0.40
2023-02-11T19:50:59.684Z,0.55
2023-02-11T19:53:27.294Z,0.40
2023-02-11T19:55:54.686Z,1.10
2023-02-11T19:58:22.341Z,0.40
2023-02-11T20:00:49.665Z,0.40
2023-02-11T20:03:17.206Z,0.60
2023-02-11T20:05:47.188Z,0.55
2023-02-11T20:08:17.142Z,0.50
2023-02-11T20:10:44.585Z,0.43
2023-02-11T20:13:12.201Z,0.75
2023-02-11T20:15:39.564Z,0.30
2023-02-11T20:18:07.358Z,0.40
2023-02-11T20:20:34.651Z,0.60
2023-02-11T20:23:02.214Z,0.55
2023-02-11T20:25:29.586Z,0.57
2023-02-11T20:27:57.216Z,0.30
2023-02-11T20:30:24.507Z,0.20
2023-02-11T20:32:52.063Z,0.20
2023-02-11T20:35:19.362Z,0.20
2023-02-11T20:37:46.934Z,0.20
2023-02-11T20:40:14.186Z,0.30
2023-02-11T20:42:41.759Z,0.10
2023-02-11T20:45:09.308Z,0.20
2023-02-11T20:47:38.440Z,0.82
2023-02-11T20:50:06.440Z,0.25
2023-02-11T20:52:34.409Z,0.40
2023-02-11T20:55:01.736Z,0.43
2023-02-11T20:57:29.263Z,0.47
2023-02-11T20:59:56.556Z,0.40
2023-02-11T21:02:24.962Z,0.50
2023-02-11T21:04:52.415Z,0.30
2023-02-11T21:07:20.417Z,0.13
2023-02-11T21:09:47.633Z,0.20
2023-02-11T21:12:15.132Z,0.20
2023-02-11T21:14:42.412Z,0.10
2023-02-11T21:17:09.923Z,0.22
2023-02-11T21:19:37.172Z,0.20
2023-02-11T21:22:04.935Z,0.28
2023-02-11T21:24:32.213Z,0.60
2023-02-11T21:26:59.917Z,0.20
2023-02-11T21:29:27.196Z,0.13
2023-02-11T21:31:54.974Z,0.30
2023-02-11T21:34:22.255Z,0.30
2023-02-11T21:36:51.336Z,0.30
2023-02-11T21:39:20.325Z,0.40
2023-02-11T21:41:48.179Z,0.88
2023-02-11T21:44:15.527Z,0.20
2023-02-11T21:46:43.114Z,0.22
2023-02-11T21:49:10.736Z,0.40
2023-02-11T21:51:39.300Z,1.27
2023-02-11T21:54:06.586Z,0.43
2023-02-11T21:56:35.481Z,0.47
2023-02-11T21:59:03.450Z,1.85
2023-02-11T22:01:33.420Z,0.77
2023-02-11T22:04:01.351Z,0.28
2023-02-11T22:06:31.260Z,0.30
2023-02-11T22:09:01.765Z,0.20
2023-02-11T22:11:29.382Z,0.10
2023-02-11T22:13:57.994Z,0.13
2023-02-11T22:16:27.448Z,0.10
2023-02-11T22:18:58.510Z,0.15
2023-02-11T22:21:26.625Z,0.20
2023-02-11T22:23:55.231Z,0.17
2023-02-11T22:26:24.434Z,0.15
2023-02-11T22:28:52.187Z,0.15
2023-02-11T22:31:23.122Z,0.22
2023-02-11T22:33:50.692Z,0.35
2023-02-11T22:36:29.908Z,0.80
2023-02-11T22:39:01.765Z,0.28
2023-02-11T22:41:30.072Z,0.50
2023-02-11T22:43:57.354Z,0.40
2023-02-11T22:46:25.006Z,0.25
2023-02-11T22:48:52.703Z,0.25
2023-02-11T22:51:28.855Z,0.20
2023-02-11T22:54:01.808Z,0.20
2023-02-11T22:56:31.100Z,0.10
2023-02-11T22:59:01.062Z,0.10
2023-02-11T23:01:29.985Z,0.20
2023-02-11T23:03:59.610Z,0.63
2023-02-11T23:06:27.286Z,0.17
2023-02-11T23:08:55.052Z,0.35
2023-02-11T23:11:27.235Z,0.30
2023-02-11T23:13:55.168Z,0.30
2023-02-11T23:16:25.884Z,0.17
2023-02-11T23:18:53.954Z,0.35
2023-02-11T23:21:54.249Z,0.30
2023-02-11T23:24:21.720Z,0.47
2023-02-11T23:26:49.461Z,0.15
2023-02-11T23:29:17.013Z,0.40
2023-02-11T23:31:46.680Z,0.30
2023-02-11T23:34:18.537Z,0.95
2023-02-11T23:36:46.245Z,0.22
2023-02-11T23:39:15.600Z,0.80
2023-02-11T23:41:43.204Z,0.30
2023-02-11T23:44:10.886Z,4.50
2023-02-11T23:46:38.988Z,2.00
2023-02-11T23:49:06.276Z,0.50
2023-02-11T23:51:33.955Z,0.77
2023-02-11T23:54:02.545Z,0.88
2023-02-11T23:56:30.663Z,0.22
2023-02-11T23:58:59.433Z,0.30
